sensor_id;sensor_type;location;lat;lon;timestamp;temperature;humidity
1385;DHT22;686;51.080;13.716;2022-08-05T00:01:51;26.60;83.30
1385;DHT22;686;51.080;13.716;2022-08-05T00:04:17;26.60;83.50
1385;DHT22;686;51.080;13.716;2022-08-05T00:06:43;26.60;83.80
1385;DHT22;686;51.080;13.716;2022-08-05T00:09:08;26.40;84.20
1385;DHT22;686;51.080;13.716;2022-08-05T00:11:34;26.40;84.30
1385;DHT22;686;51.080;13.716;2022-08-05T00:14:00;26.40;84.90
1385;DHT22;686;51.080;13.716;2022-08-05T00:16:26;26.30;85.00
1385;DHT22;686;51.080;13.716;2022-08-05T00:18:51;26.30;85.30
1385;DHT22;686;51.080;13.716;2022-08-05T00:21:17;26.30;85.50
1385;DHT22;686;51.080;13.716;2022-08-05T00:23:46;26.30;85.70
1385;DHT22;686;51.080;13.716;2022-08-05T00:26:14;26.20;86.00
1385;DHT22;686;51.080;13.716;2022-08-05T00:28:40;26.10;86.50
1385;DHT22;686;51.080;13.716;2022-08-05T00:31:06;26.10;86.00
1385;DHT22;686;51.080;13.716;2022-08-05T00:33:33;26.20;86.50
1385;DHT22;686;51.080;13.716;2022-08-05T00:35:59;26.20;86.10
1385;DHT22;686;51.080;13.716;2022-08-05T00:38:25;26.20;86.70
1385;DHT22;686;51.080;13.716;2022-08-05T00:40:54;26.20;87.50
1385;DHT22;686;51.080;13.716;2022-08-05T00:43:21;26.10;87.80
1385;DHT22;686;51.080;13.716;2022-08-05T00:45:47;26.10;88.20
1385;DHT22;686;51.080;13.716;2022-08-05T00:48:18;26.10;88.70
1385;DHT22;686;51.080;13.716;2022-08-05T00:50:46;26.00;89.00
1385;DHT22;686;51.080;13.716;2022-08-05T00:53:18;26.00;89.00
1385;DHT22;686;51.080;13.716;2022-08-05T00:55:44;26.00;89.20
1385;DHT22;686;51.080;13.716;2022-08-05T00:58:11;25.80;89.40
1385;DHT22;686;51.080;13.716;2022-08-05T01:00:38;25.70;89.70
1385;DHT22;686;51.080;13.716;2022-08-05T01:03:04;25.70;90.00
1385;DHT22;686;51.080;13.716;2022-08-05T01:05:30;25.70;90.20
1385;DHT22;686;51.080;13.716;2022-08-05T01:07:55;25.60;90.40
1385;DHT22;686;51.080;13.716;2022-08-05T01:10:27;25.60;90.40
1385;DHT22;686;51.080;13.716;2022-08-05T01:13:00;25.60;90.70
1385;DHT22;686;51.080;13.716;2022-08-05T01:15:38;25.50;90.80
1385;DHT22;686;51.080;13.716;2022-08-05T01:18:11;25.50;91.00
1385;DHT22;686;51.080;13.716;2022-08-05T01:21:11;25.40;91.20
1385;DHT22;686;51.080;13.716;2022-08-05T01:24:39;25.40;91.20
1385;DHT22;686;51.080;13.716;2022-08-05T01:29:20;25.40;91.40
1385;DHT22;686;51.080;13.716;2022-08-05T01:31:53;25.40;91.30
1385;DHT22;686;51.080;13.716;2022-08-05T01:34:22;25.40;91.50
1385;DHT22;686;51.080;13.716;2022-08-05T01:36:53;25.30;91.80
1385;DHT22;686;51.080;13.716;2022-08-05T01:39:20;25.30;92.00
1385;DHT22;686;51.080;13.716;2022-08-05T01:41:48;25.20;92.30
1385;DHT22;686;51.080;13.716;2022-08-05T01:44:16;25.10;92.60
1385;DHT22;686;51.080;13.716;2022-08-05T01:46:43;25.00;92.80
1385;DHT22;686;51.080;13.716;2022-08-05T01:49:13;25.00;92.90
1385;DHT22;686;51.080;13.716;2022-08-05T01:51:40;25.00;93.00
1385;DHT22;686;51.080;13.716;2022-08-05T01:54:07;25.00;93.00
1385;DHT22;686;51.080;13.716;2022-08-05T01:56:38;25.00;93.30
1385;DHT22;686;51.080;13.716;2022-08-05T01:59:07;25.00;93.40
1385;DHT22;686;51.080;13.716;2022-08-05T02:01:35;25.00;93.20
1385;DHT22;686;51.080;13.716;2022-08-05T02:04:02;25.10;93.40
1385;DHT22;686;51.080;13.716;2022-08-05T02:06:29;25.10;93.40
1385;DHT22;686;51.080;13.716;2022-08-05T02:08:55;25.00;93.60
1385;DHT22;686;51.080;13.716;2022-08-05T02:11:22;24.80;93.90
1385;DHT22;686;51.080;13.716;2022-08-05T02:16:53;24.80;94.30
1385;DHT22;686;51.080;13.716;2022-08-05T02:21:58;24.70;94.60
1385;DHT22;686;51.080;13.716;2022-08-05T02:24:30;24.70;95.10
1385;DHT22;686;51.080;13.716;2022-08-05T02:27:00;24.70;95.00
1385;DHT22;686;51.080;13.716;2022-08-05T02:29:28;24.70;95.30
1385;DHT22;686;51.080;13.716;2022-08-05T02:31:56;24.60;95.50
1385;DHT22;686;51.080;13.716;2022-08-05T02:34:23;24.60;95.70
1385;DHT22;686;51.080;13.716;2022-08-05T02:36:53;24.50;96.10
1385;DHT22;686;51.080;13.716;2022-08-05T02:39:21;24.50;95.90
1385;DHT22;686;51.080;13.716;2022-08-05T02:41:48;24.40;96.30
1385;DHT22;686;51.080;13.716;2022-08-05T02:44:16;24.50;96.10
1385;DHT22;686;51.080;13.716;2022-08-05T02:46:44;24.50;95.80
1385;DHT22;686;51.080;13.716;2022-08-05T02:49:14;24.60;96.40
1385;DHT22;686;51.080;13.716;2022-08-05T02:51:40;24.50;96.60
1385;DHT22;686;51.080;13.716;2022-08-05T02:54:08;24.40;96.80
1385;DHT22;686;51.080;13.716;2022-08-05T02:56:34;24.30;96.70
1385;DHT22;686;51.080;13.716;2022-08-05T02:59:00;24.30;96.90
1385;DHT22;686;51.080;13.716;2022-08-05T03:01:28;24.30;96.20
1385;DHT22;686;51.080;13.716;2022-08-05T03:03:57;24.30;96.70
1385;DHT22;686;51.080;13.716;2022-08-05T03:06:25;24.30;97.10
1385;DHT22;686;51.080;13.716;2022-08-05T03:08:52;24.30;97.10
1385;DHT22;686;51.080;13.716;2022-08-05T03:11:20;24.30;97.10
1385;DHT22;686;51.080;13.716;2022-08-05T03:13:46;24.30;97.50
1385;DHT22;686;51.080;13.716;2022-08-05T03:16:12;24.20;97.60
1385;DHT22;686;51.080;13.716;2022-08-05T03:18:38;24.30;97.40
1385;DHT22;686;51.080;13.716;2022-08-05T03:21:04;24.30;96.90
1385;DHT22;686;51.080;13.716;2022-08-05T03:23:30;24.40;97.20
1385;DHT22;686;51.080;13.716;2022-08-05T03:25:56;24.40;97.50
1385;DHT22;686;51.080;13.716;2022-08-05T03:28:23;24.40;97.30
1385;DHT22;686;51.080;13.716;2022-08-05T03:30:49;24.40;97.20
1385;DHT22;686;51.080;13.716;2022-08-05T03:33:15;24.50;96.20
1385;DHT22;686;51.080;13.716;2022-08-05T03:35:44;24.50;96.20
1385;DHT22;686;51.080;13.716;2022-08-05T03:38:10;24.50;96.30
1385;DHT22;686;51.080;13.716;2022-08-05T03:40:41;24.50;96.40
1385;DHT22;686;51.080;13.716;2022-08-05T03:43:06;24.50;96.70
1385;DHT22;686;51.080;13.716;2022-08-05T03:45:32;24.40;97.10
1385;DHT22;686;51.080;13.716;2022-08-05T03:47:58;24.40;97.80
1385;DHT22;686;51.080;13.716;2022-08-05T03:50:32;24.30;97.60
1385;DHT22;686;51.080;13.716;2022-08-05T03:53:12;24.30;97.70
1385;DHT22;686;51.080;13.716;2022-08-05T03:55:45;24.30;97.80
1385;DHT22;686;51.080;13.716;2022-08-05T03:58:15;24.20;97.90
1385;DHT22;686;51.080;13.716;2022-08-05T04:00:43;24.20;98.20
1385;DHT22;686;51.080;13.716;2022-08-05T04:03:11;24.10;98.90
1385;DHT22;686;51.080;13.716;2022-08-05T04:05:37;24.10;98.90
1385;DHT22;686;51.080;13.716;2022-08-05T04:08:06;24.20;98.80
1385;DHT22;686;51.080;13.716;2022-08-05T04:10:33;24.30;98.70
1385;DHT22;686;51.080;13.716;2022-08-05T04:12:59;24.60;98.40
1385;DHT22;686;51.080;13.716;2022-08-05T04:15:26;25.00;98.00
1385;DHT22;686;51.080;13.716;2022-08-05T04:17:53;25.30;97.50
1385;DHT22;686;51.080;13.716;2022-08-05T04:20:22;25.50;97.20
1385;DHT22;686;51.080;13.716;2022-08-05T04:22:48;25.70;96.90
1385;DHT22;686;51.080;13.716;2022-08-05T04:25:14;25.70;96.50
1385;DHT22;686;51.080;13.716;2022-08-05T04:27:40;25.90;96.30
1385;DHT22;686;51.080;13.716;2022-08-05T04:30:07;26.10;96.20
1385;DHT22;686;51.080;13.716;2022-08-05T04:32:33;26.00;96.10
1385;DHT22;686;51.080;13.716;2022-08-05T04:34:59;26.10;96.10
1385;DHT22;686;51.080;13.716;2022-08-05T04:37:25;26.30;95.80
1385;DHT22;686;51.080;13.716;2022-08-05T04:39:51;26.30;95.70
1385;DHT22;686;51.080;13.716;2022-08-05T04:42:16;26.40;95.80
1385;DHT22;686;51.080;13.716;2022-08-05T04:44:42;26.30;95.90
1385;DHT22;686;51.080;13.716;2022-08-05T04:47:08;26.30;96.30
1385;DHT22;686;51.080;13.716;2022-08-05T04:49:33;26.50;95.40
1385;DHT22;686;51.080;13.716;2022-08-05T04:51:59;26.60;95.00
1385;DHT22;686;51.080;13.716;2022-08-05T04:54:25;26.70;95.10
1385;DHT22;686;51.080;13.716;2022-08-05T04:56:54;27.00;94.70
1385;DHT22;686;51.080;13.716;2022-08-05T04:59:20;27.10;94.00
1385;DHT22;686;51.080;13.716;2022-08-05T05:01:53;26.80;93.90
1385;DHT22;686;51.080;13.716;2022-08-05T05:04:19;26.40;93.90
1385;DHT22;686;51.080;13.716;2022-08-05T05:06:44;25.80;94.50
1385;DHT22;686;51.080;13.716;2022-08-05T05:09:13;25.50;95.30
1385;DHT22;686;51.080;13.716;2022-08-05T05:11:39;25.40;95.20
1385;DHT22;686;51.080;13.716;2022-08-05T05:14:05;25.30;95.50
1385;DHT22;686;51.080;13.716;2022-08-05T05:16:31;25.20;95.70
1385;DHT22;686;51.080;13.716;2022-08-05T05:18:57;25.30;95.90
1385;DHT22;686;51.080;13.716;2022-08-05T05:21:23;25.30;96.00
1385;DHT22;686;51.080;13.716;2022-08-05T05:23:49;25.40;96.00
1385;DHT22;686;51.080;13.716;2022-08-05T05:26:15;25.30;96.60
1385;DHT22;686;51.080;13.716;2022-08-05T05:28:41;25.40;96.70
1385;DHT22;686;51.080;13.716;2022-08-05T05:31:07;25.50;96.30
1385;DHT22;686;51.080;13.716;2022-08-05T05:33:32;25.60;95.80
1385;DHT22;686;51.080;13.716;2022-08-05T05:35:58;25.60;95.90
1385;DHT22;686;51.080;13.716;2022-08-05T05:38:24;25.60;95.40
1385;DHT22;686;51.080;13.716;2022-08-05T05:40:51;25.60;95.30
1385;DHT22;686;51.080;13.716;2022-08-05T05:43:17;25.70;95.40
1385;DHT22;686;51.080;13.716;2022-08-05T05:45:43;25.70;95.40
1385;DHT22;686;51.080;13.716;2022-08-05T05:48:09;25.50;95.60
1385;DHT22;686;51.080;13.716;2022-08-05T05:50:35;25.60;95.60
1385;DHT22;686;51.080;13.716;2022-08-05T05:53:01;25.70;95.50
1385;DHT22;686;51.080;13.716;2022-08-05T05:55:26;25.80;95.10
1385;DHT22;686;51.080;13.716;2022-08-05T05:57:52;25.90;95.10
1385;DHT22;686;51.080;13.716;2022-08-05T06:00:19;25.90;95.10
1385;DHT22;686;51.080;13.716;2022-08-05T06:02:46;26.00;95.20
1385;DHT22;686;51.080;13.716;2022-08-05T06:05:15;26.10;94.90
1385;DHT22;686;51.080;13.716;2022-08-05T06:07:41;26.30;94.90
1385;DHT22;686;51.080;13.716;2022-08-05T06:10:09;26.30;94.90
1385;DHT22;686;51.080;13.716;2022-08-05T06:12:35;26.40;94.50
1385;DHT22;686;51.080;13.716;2022-08-05T06:15:03;26.40;94.40
1385;DHT22;686;51.080;13.716;2022-08-05T06:17:29;26.30;93.90
1385;DHT22;686;51.080;13.716;2022-08-05T06:19:55;26.10;94.40
1385;DHT22;686;51.080;13.716;2022-08-05T06:22:31;26.10;93.80
1385;DHT22;686;51.080;13.716;2022-08-05T06:24:58;26.30;93.70
1385;DHT22;686;51.080;13.716;2022-08-05T06:27:24;26.50;93.40
1385;DHT22;686;51.080;13.716;2022-08-05T06:29:49;26.60;92.40
1385;DHT22;686;51.080;13.716;2022-08-05T06:32:15;26.50;92.70
1385;DHT22;686;51.080;13.716;2022-08-05T06:34:41;26.60;92.80
1385;DHT22;686;51.080;13.716;2022-08-05T06:37:07;26.70;92.60
1385;DHT22;686;51.080;13.716;2022-08-05T06:39:33;26.80;92.60
1385;DHT22;686;51.080;13.716;2022-08-05T06:42:00;26.70;92.50
1385;DHT22;686;51.080;13.716;2022-08-05T06:44:27;26.80;92.20
1385;DHT22;686;51.080;13.716;2022-08-05T06:46:54;26.80;91.50
1385;DHT22;686;51.080;13.716;2022-08-05T06:49:20;26.90;91.60
1385;DHT22;686;51.080;13.716;2022-08-05T06:51:46;27.00;91.20
1385;DHT22;686;51.080;13.716;2022-08-05T06:54:12;27.00;92.60
1385;DHT22;686;51.080;13.716;2022-08-05T06:56:38;27.00;93.40
1385;DHT22;686;51.080;13.716;2022-08-05T06:59:05;26.80;95.50
1385;DHT22;686;51.080;13.716;2022-08-05T07:01:31;26.70;96.70
1385;DHT22;686;51.080;13.716;2022-08-05T07:03:57;26.60;97.90
1385;DHT22;686;51.080;13.716;2022-08-05T07:06:23;26.70;98.10
1385;DHT22;686;51.080;13.716;2022-08-05T07:08:49;26.70;98.60
1385;DHT22;686;51.080;13.716;2022-08-05T07:11:15;26.70;99.20
1385;DHT22;686;51.080;13.716;2022-08-05T07:13:42;26.70;99.50
1385;DHT22;686;51.080;13.716;2022-08-05T07:16:27;26.50;99.90
1385;DHT22;686;51.080;13.716;2022-08-05T07:19:11;26.50;99.90
1385;DHT22;686;51.080;13.716;2022-08-05T07:21:37;26.50;99.90
1385;DHT22;686;51.080;13.716;2022-08-05T07:24:03;26.60;99.90
1385;DHT22;686;51.080;13.716;2022-08-05T07:26:29;26.30;99.90
1385;DHT22;686;51.080;13.716;2022-08-05T07:28:55;26.20;99.90
1385;DHT22;686;51.080;13.716;2022-08-05T07:31:21;26.10;99.90
1385;DHT22;686;51.080;13.716;2022-08-05T07:33:46;26.30;99.90
1385;DHT22;686;51.080;13.716;2022-08-05T07:36:12;26.20;99.90
1385;DHT22;686;51.080;13.716;2022-08-05T07:38:39;26.10;99.90
1385;DHT22;686;51.080;13.716;2022-08-05T07:41:10;26.10;99.90
1385;DHT22;686;51.080;13.716;2022-08-05T07:43:36;26.10;99.90
1385;DHT22;686;51.080;13.716;2022-08-05T07:46:02;26.30;99.90
1385;DHT22;686;51.080;13.716;2022-08-05T07:48:28;26.50;99.90
1385;DHT22;686;51.080;13.716;2022-08-05T07:50:53;26.50;99.90
1385;DHT22;686;51.080;13.716;2022-08-05T07:53:19;26.50;99.90
1385;DHT22;686;51.080;13.716;2022-08-05T07:55:45;26.70;99.90
1385;DHT22;686;51.080;13.716;2022-08-05T07:58:11;26.80;99.90
1385;DHT22;686;51.080;13.716;2022-08-05T08:00:36;26.90;99.90
1385;DHT22;686;51.080;13.716;2022-08-05T08:03:02;27.20;99.90
1385;DHT22;686;51.080;13.716;2022-08-05T08:05:28;27.20;99.90
1385;DHT22;686;51.080;13.716;2022-08-05T08:07:54;27.30;99.90
1385;DHT22;686;51.080;13.716;2022-08-05T08:10:21;27.40;99.90
1385;DHT22;686;51.080;13.716;2022-08-05T08:12:48;27.30;99.90
1385;DHT22;686;51.080;13.716;2022-08-05T08:15:14;27.20;99.90
1385;DHT22;686;51.080;13.716;2022-08-05T08:17:40;27.30;99.90
1385;DHT22;686;51.080;13.716;2022-08-05T08:20:06;27.10;99.90
1385;DHT22;686;51.080;13.716;2022-08-05T08:22:32;27.10;99.90
1385;DHT22;686;51.080;13.716;2022-08-05T08:24:58;27.10;99.90
1385;DHT22;686;51.080;13.716;2022-08-05T08:27:24;27.00;99.90
1385;DHT22;686;51.080;13.716;2022-08-05T08:29:49;27.00;99.90
1385;DHT22;686;51.080;13.716;2022-08-05T08:32:15;26.80;99.90
1385;DHT22;686;51.080;13.716;2022-08-05T08:34:41;26.80;99.90
1385;DHT22;686;51.080;13.716;2022-08-05T08:37:07;26.90;99.90
1385;DHT22;686;51.080;13.716;2022-08-05T08:39:33;27.20;99.90
1385;DHT22;686;51.080;13.716;2022-08-05T08:42:00;27.10;99.90
1385;DHT22;686;51.080;13.716;2022-08-05T08:44:29;27.30;99.90
1385;DHT22;686;51.080;13.716;2022-08-05T08:46:55;27.40;99.90
1385;DHT22;686;51.080;13.716;2022-08-05T08:49:23;27.40;99.90
1385;DHT22;686;51.080;13.716;2022-08-05T08:52:11;27.40;99.90
1385;DHT22;686;51.080;13.716;2022-08-05T08:54:37;27.40;99.90
1385;DHT22;686;51.080;13.716;2022-08-05T08:57:06;27.60;99.90
1385;DHT22;686;51.080;13.716;2022-08-05T08:59:33;27.70;99.90
1385;DHT22;686;51.080;13.716;2022-08-05T09:01:59;27.60;99.90
1385;DHT22;686;51.080;13.716;2022-08-05T09:04:26;27.60;99.90
1385;DHT22;686;51.080;13.716;2022-08-05T09:06:52;27.60;99.90
1385;DHT22;686;51.080;13.716;2022-08-05T09:09:18;27.70;99.90
1385;DHT22;686;51.080;13.716;2022-08-05T09:11:44;27.80;99.90
1385;DHT22;686;51.080;13.716;2022-08-05T09:14:10;27.90;99.90
1385;DHT22;686;51.080;13.716;2022-08-05T09:16:38;27.90;99.90
1385;DHT22;686;51.080;13.716;2022-08-05T09:19:06;27.80;99.90
1385;DHT22;686;51.080;13.716;2022-08-05T09:21:33;27.90;99.90
1385;DHT22;686;51.080;13.716;2022-08-05T09:24:07;28.10;99.90
1385;DHT22;686;51.080;13.716;2022-08-05T09:26:34;27.90;99.90
1385;DHT22;686;51.080;13.716;2022-08-05T09:29:03;28.10;99.90
1385;DHT22;686;51.080;13.716;2022-08-05T09:31:30;28.00;99.90
1385;DHT22;686;51.080;13.716;2022-08-05T09:39:09;28.30;99.90
1385;DHT22;686;51.080;13.716;2022-08-05T09:41:57;28.40;99.90
1385;DHT22;686;51.080;13.716;2022-08-05T09:44:52;28.10;99.90
1385;DHT22;686;51.080;13.716;2022-08-05T09:47:24;28.20;99.90
1385;DHT22;686;51.080;13.716;2022-08-05T09:49:54;28.40;99.90
1385;DHT22;686;51.080;13.716;2022-08-05T09:52:25;28.60;99.90
1385;DHT22;686;51.080;13.716;2022-08-05T09:57:44;28.60;99.90
1385;DHT22;686;51.080;13.716;2022-08-05T10:02:42;28.40;99.90
1385;DHT22;686;51.080;13.716;2022-08-05T10:05:25;28.60;99.90
1385;DHT22;686;51.080;13.716;2022-08-05T10:07:55;28.70;99.90
1385;DHT22;686;51.080;13.716;2022-08-05T10:12:54;29.00;99.90
1385;DHT22;686;51.080;13.716;2022-08-05T10:20:45;29.20;99.90
1385;DHT22;686;51.080;13.716;2022-08-05T10:23:17;29.00;99.90
1385;DHT22;686;51.080;13.716;2022-08-05T10:25:43;28.90;99.90
1385;DHT22;686;51.080;13.716;2022-08-05T10:28:09;29.40;99.90
1385;DHT22;686;51.080;13.716;2022-08-05T10:30:36;29.40;99.90
1385;DHT22;686;51.080;13.716;2022-08-05T10:33:03;29.30;99.90
1385;DHT22;686;51.080;13.716;2022-08-05T10:35:30;29.20;99.90
1385;DHT22;686;51.080;13.716;2022-08-05T10:37:57;29.20;99.90
1385;DHT22;686;51.080;13.716;2022-08-05T10:40:37;29.50;99.90
1385;DHT22;686;51.080;13.716;2022-08-05T10:43:15;29.80;99.90
1385;DHT22;686;51.080;13.716;2022-08-05T10:45:42;29.70;99.90
1385;DHT22;686;51.080;13.716;2022-08-05T10:51:05;29.90;99.90
1385;DHT22;686;51.080;13.716;2022-08-05T10:53:36;29.70;99.90
1385;DHT22;686;51.080;13.716;2022-08-05T10:56:05;29.90;99.90
1385;DHT22;686;51.080;13.716;2022-08-05T10:58:32;30.30;99.50
1385;DHT22;686;51.080;13.716;2022-08-05T11:00:59;30.20;99.30
1385;DHT22;686;51.080;13.716;2022-08-05T11:03:24;30.40;99.20
1385;DHT22;686;51.080;13.716;2022-08-05T11:06:11;30.40;98.60
1385;DHT22;686;51.080;13.716;2022-08-05T11:08:37;30.20;98.50
1385;DHT22;686;51.080;13.716;2022-08-05T11:11:31;30.20;98.30
1385;DHT22;686;51.080;13.716;2022-08-05T11:13:59;30.50;97.80
1385;DHT22;686;51.080;13.716;2022-08-05T11:16:25;30.40;97.40
1385;DHT22;686;51.080;13.716;2022-08-05T11:19:29;30.60;97.30
1385;DHT22;686;51.080;13.716;2022-08-05T11:25:29;31.00;96.20
1385;DHT22;686;51.080;13.716;2022-08-05T11:33:31;30.60;96.20
1385;DHT22;686;51.080;13.716;2022-08-05T11:36:02;30.90;95.70
1385;DHT22;686;51.080;13.716;2022-08-05T11:43:58;31.30;94.50
1385;DHT22;686;51.080;13.716;2022-08-05T11:46:29;31.10;94.50
1385;DHT22;686;51.080;13.716;2022-08-05T11:48:56;31.10;94.50
1385;DHT22;686;51.080;13.716;2022-08-05T11:51:23;31.00;94.50
1385;DHT22;686;51.080;13.716;2022-08-05T11:53:49;30.90;94.20
1385;DHT22;686;51.080;13.716;2022-08-05T11:56:15;31.10;93.90
1385;DHT22;686;51.080;13.716;2022-08-05T11:58:42;31.50;93.30
1385;DHT22;686;51.080;13.716;2022-08-05T12:01:19;31.60;93.00
1385;DHT22;686;51.080;13.716;2022-08-05T12:06:14;32.00;91.50
1385;DHT22;686;51.080;13.716;2022-08-05T12:08:56;32.20;91.40
1385;DHT22;686;51.080;13.716;2022-08-05T12:11:27;31.90;91.00
1385;DHT22;686;51.080;13.716;2022-08-05T12:16:24;31.90;89.60
1385;DHT22;686;51.080;13.716;2022-08-05T12:18:51;32.00;90.00
1385;DHT22;686;51.080;13.716;2022-08-05T12:21:25;32.30;90.00
1385;DHT22;686;51.080;13.716;2022-08-05T12:26:41;32.60;84.50
1385;DHT22;686;51.080;13.716;2022-08-05T12:29:10;32.50;84.40
1385;DHT22;686;51.080;13.716;2022-08-05T12:31:36;32.70;84.80
1385;DHT22;686;51.080;13.716;2022-08-05T12:34:04;32.50;84.70
1385;DHT22;686;51.080;13.716;2022-08-05T12:36:30;32.40;84.90
1385;DHT22;686;51.080;13.716;2022-08-05T12:38:57;32.30;84.80
1385;DHT22;686;51.080;13.716;2022-08-05T12:41:29;32.30;85.00
1385;DHT22;686;51.080;13.716;2022-08-05T12:44:01;32.10;85.40
1385;DHT22;686;51.080;13.716;2022-08-05T12:46:29;32.30;85.40
1385;DHT22;686;51.080;13.716;2022-08-05T12:49:09;32.50;83.50
1385;DHT22;686;51.080;13.716;2022-08-05T12:51:49;32.90;83.50
1385;DHT22;686;51.080;13.716;2022-08-05T12:54:23;32.90;83.40
1385;DHT22;686;51.080;13.716;2022-08-05T12:56:57;32.90;81.80
1385;DHT22;686;51.080;13.716;2022-08-05T12:59:29;32.90;82.20
1385;DHT22;686;51.080;13.716;2022-08-05T13:02:06;32.80;82.60
1385;DHT22;686;51.080;13.716;2022-08-05T13:04:37;32.60;82.20
1385;DHT22;686;51.080;13.716;2022-08-05T13:07:05;32.70;82.90
1385;DHT22;686;51.080;13.716;2022-08-05T13:09:33;33.00;81.70
1385;DHT22;686;51.080;13.716;2022-08-05T13:12:03;32.90;79.80
1385;DHT22;686;51.080;13.716;2022-08-05T13:15:08;33.10;79.60
1385;DHT22;686;51.080;13.716;2022-08-05T13:17:31;33.10;78.80
1385;DHT22;686;51.080;13.716;2022-08-05T13:22:23;33.30;77.00
1385;DHT22;686;51.080;13.716;2022-08-05T13:24:49;33.10;77.60
1385;DHT22;686;51.080;13.716;2022-08-05T13:27:34;33.10;77.70
1385;DHT22;686;51.080;13.716;2022-08-05T13:29:59;33.10;77.20
1385;DHT22;686;51.080;13.716;2022-08-05T13:32:26;33.30;77.10
1385;DHT22;686;51.080;13.716;2022-08-05T13:34:53;33.50;77.00
1385;DHT22;686;51.080;13.716;2022-08-05T13:37:19;33.60;77.50
1385;DHT22;686;51.080;13.716;2022-08-05T13:39:52;33.20;77.60
1385;DHT22;686;51.080;13.716;2022-08-05T13:42:21;32.90;78.40
1385;DHT22;686;51.080;13.716;2022-08-05T13:44:55;32.90;78.30
1385;DHT22;686;51.080;13.716;2022-08-05T13:47:22;32.80;76.90
1385;DHT22;686;51.080;13.716;2022-08-05T13:49:49;32.80;77.00
1385;DHT22;686;51.080;13.716;2022-08-05T13:52:18;32.90;76.70
1385;DHT22;686;51.080;13.716;2022-08-05T13:54:44;32.80;76.70
1385;DHT22;686;51.080;13.716;2022-08-05T13:57:11;32.90;76.70
1385;DHT22;686;51.080;13.716;2022-08-05T13:59:38;33.30;76.00
1385;DHT22;686;51.080;13.716;2022-08-05T14:02:05;33.30;75.30
1385;DHT22;686;51.080;13.716;2022-08-05T14:04:40;33.50;74.90
1385;DHT22;686;51.080;13.716;2022-08-05T14:07:27;33.30;75.00
1385;DHT22;686;51.080;13.716;2022-08-05T14:09:53;33.40;74.80
1385;DHT22;686;51.080;13.716;2022-08-05T14:12:19;33.40;74.80
1385;DHT22;686;51.080;13.716;2022-08-05T14:14:46;33.50;75.20
1385;DHT22;686;51.080;13.716;2022-08-05T14:17:11;33.60;74.10
1385;DHT22;686;51.080;13.716;2022-08-05T14:19:39;33.50;74.40
1385;DHT22;686;51.080;13.716;2022-08-05T14:22:05;33.70;75.00
1385;DHT22;686;51.080;13.716;2022-08-05T14:24:30;33.30;75.00
1385;DHT22;686;51.080;13.716;2022-08-05T14:26:56;33.30;74.80
1385;DHT22;686;51.080;13.716;2022-08-05T14:29:22;33.10;75.00
1385;DHT22;686;51.080;13.716;2022-08-05T14:31:48;33.30;75.40
1385;DHT22;686;51.080;13.716;2022-08-05T14:34:13;33.20;75.00
1385;DHT22;686;51.080;13.716;2022-08-05T14:36:39;33.10;75.30
1385;DHT22;686;51.080;13.716;2022-08-05T14:39:05;32.90;75.20
1385;DHT22;686;51.080;13.716;2022-08-05T14:41:31;33.20;74.80
1385;DHT22;686;51.080;13.716;2022-08-05T14:43:57;32.90;75.70
1385;DHT22;686;51.080;13.716;2022-08-05T14:46:26;32.90;76.00
1385;DHT22;686;51.080;13.716;2022-08-05T14:48:52;32.90;75.70
1385;DHT22;686;51.080;13.716;2022-08-05T14:51:18;33.00;75.90
1385;DHT22;686;51.080;13.716;2022-08-05T14:53:44;33.10;75.70
1385;DHT22;686;51.080;13.716;2022-08-05T14:56:11;32.90;76.00
1385;DHT22;686;51.080;13.716;2022-08-05T14:58:36;33.00;76.00
1385;DHT22;686;51.080;13.716;2022-08-05T15:01:02;33.20;75.70
1385;DHT22;686;51.080;13.716;2022-08-05T15:03:28;33.10;75.80
1385;DHT22;686;51.080;13.716;2022-08-05T15:05:55;33.10;75.70
1385;DHT22;686;51.080;13.716;2022-08-05T15:08:20;32.90;76.00
1385;DHT22;686;51.080;13.716;2022-08-05T15:10:46;32.80;75.60
1385;DHT22;686;51.080;13.716;2022-08-05T15:13:12;32.60;76.20
1385;DHT22;686;51.080;13.716;2022-08-05T15:15:38;32.60;75.90
1385;DHT22;686;51.080;13.716;2022-08-05T15:18:04;32.90;75.80
1385;DHT22;686;51.080;13.716;2022-08-05T15:20:30;32.90;75.40
1385;DHT22;686;51.080;13.716;2022-08-05T15:23:01;32.90;75.30
1385;DHT22;686;51.080;13.716;2022-08-05T15:25:26;32.80;75.40
1385;DHT22;686;51.080;13.716;2022-08-05T15:27:52;32.90;75.30
1385;DHT22;686;51.080;13.716;2022-08-05T15:30:18;33.10;74.30
1385;DHT22;686;51.080;13.716;2022-08-05T15:32:44;33.40;73.30
1385;DHT22;686;51.080;13.716;2022-08-05T15:35:09;33.60;72.80
1385;DHT22;686;51.080;13.716;2022-08-05T15:37:35;33.90;72.10
1385;DHT22;686;51.080;13.716;2022-08-05T15:40:01;34.20;71.90
1385;DHT22;686;51.080;13.716;2022-08-05T15:42:26;34.40;72.10
1385;DHT22;686;51.080;13.716;2022-08-05T15:44:52;34.10;71.80
1385;DHT22;686;51.080;13.716;2022-08-05T15:47:20;33.80;72.10
1385;DHT22;686;51.080;13.716;2022-08-05T15:49:50;33.70;72.60
1385;DHT22;686;51.080;13.716;2022-08-05T15:52:17;33.70;72.60
1385;DHT22;686;51.080;13.716;2022-08-05T15:54:43;34.10;71.90
1385;DHT22;686;51.080;13.716;2022-08-05T15:57:09;34.10;71.70
1385;DHT22;686;51.080;13.716;2022-08-05T15:59:35;34.20;71.90
1385;DHT22;686;51.080;13.716;2022-08-05T16:02:01;33.50;73.00
1385;DHT22;686;51.080;13.716;2022-08-05T16:04:27;33.20;74.10
1385;DHT22;686;51.080;13.716;2022-08-05T16:06:53;33.00;74.60
1385;DHT22;686;51.080;13.716;2022-08-05T16:09:19;32.90;74.80
1385;DHT22;686;51.080;13.716;2022-08-05T16:11:46;32.60;75.40
1385;DHT22;686;51.080;13.716;2022-08-05T16:14:12;32.40;75.90
1385;DHT22;686;51.080;13.716;2022-08-05T16:16:38;32.20;76.20
1385;DHT22;686;51.080;13.716;2022-08-05T16:19:04;32.40;76.30
1385;DHT22;686;51.080;13.716;2022-08-05T16:21:30;32.80;75.60
1385;DHT22;686;51.080;13.716;2022-08-05T16:23:56;32.90;75.30
1385;DHT22;686;51.080;13.716;2022-08-05T16:26:21;33.30;74.90
1385;DHT22;686;51.080;13.716;2022-08-05T16:28:47;33.40;74.60
1385;DHT22;686;51.080;13.716;2022-08-05T16:31:14;33.30;74.30
1385;DHT22;686;51.080;13.716;2022-08-05T16:33:40;33.30;74.50
1385;DHT22;686;51.080;13.716;2022-08-05T16:36:06;33.30;74.90
1385;DHT22;686;51.080;13.716;2022-08-05T16:38:32;33.50;74.30
1385;DHT22;686;51.080;13.716;2022-08-05T16:40:59;33.30;74.60
1385;DHT22;686;51.080;13.716;2022-08-05T16:43:32;33.20;75.10
1385;DHT22;686;51.080;13.716;2022-08-05T16:45:59;33.30;75.30
1385;DHT22;686;51.080;13.716;2022-08-05T16:48:25;33.10;75.50
1385;DHT22;686;51.080;13.716;2022-08-05T16:50:51;33.10;75.50
1385;DHT22;686;51.080;13.716;2022-08-05T16:53:17;33.30;75.40
1385;DHT22;686;51.080;13.716;2022-08-05T16:55:43;33.20;75.70
1385;DHT22;686;51.080;13.716;2022-08-05T16:58:09;33.00;76.30
1385;DHT22;686;51.080;13.716;2022-08-05T17:00:34;33.00;76.70
1385;DHT22;686;51.080;13.716;2022-08-05T17:03:01;33.10;76.80